Time;durP1;ratioP1;P1;durP2;ratioP2;P2;SDS_P1;SDS_P2;PMS_P1;PMS_P2;Temp;Humidity;BMP_temperature;BMP_pressure;BME280_temperature;BME280_humidity;BME280_pressure;Samples;Min_cycle;Max_cycle;Signal;HPM_P1;HPM_P2
2022/11/22 00:00:39;;;;;;;1.02;0.85;;;8.50;85.20;;;;;;4997331;28;20029;-62
2022/11/22 00:03:04;;;;;;;2.72;1.48;;;8.50;85.10;;;;;;4994198;28;20486;-63
2022/11/22 00:05:30;;;;;;;3.58;1.38;;;8.50;85.10;;;;;;4994153;28;20040;-63
2022/11/22 00:07:56;;;;;;;3.67;1.20;;;8.50;85.10;;;;;;5025119;28;20464;-63
2022/11/22 00:10:22;;;;;;;3.08;1.70;;;8.50;85.20;;;;;;4992698;28;20176;-64
2022/11/22 00:12:47;;;;;;;2.47;1.40;;;8.40;85.20;;;;;;4994043;28;20025;-63
2022/11/22 00:15:13;;;;;;;2.03;1.20;;;8.50;85.30;;;;;;5003712;28;20049;-63
2022/11/22 00:17:39;;;;;;;1.95;1.30;;;8.40;85.20;;;;;;4994992;28;20030;-62
2022/11/22 00:20:07;;;;;;;1.67;1.15;;;8.40;85.20;;;;;;5003778;28;20491;-63
2022/11/22 00:22:33;;;;;;;1.75;1.00;;;8.50;85.20;;;;;;4993360;28;20393;-62
2022/11/22 00:24:59;;;;;;;3.60;1.77;;;8.40;85.20;;;;;;4996209;28;20027;-62
2022/11/22 00:27:25;;;;;;;1.45;1.23;;;8.50;85.20;;;;;;4996433;28;20029;-62
2022/11/22 00:29:50;;;;;;;3.80;1.35;;;8.40;85.20;;;;;;5002189;28;20512;-63
2022/11/22 00:32:16;;;;;;;1.90;1.40;;;8.40;85.10;;;;;;4999703;28;20496;-63
2022/11/22 00:34:42;;;;;;;3.05;1.45;;;8.40;85.10;;;;;;4998852;28;20032;-62
2022/11/22 00:37:07;;;;;;;1.75;1.08;;;8.40;85.20;;;;;;4991700;28;20033;-63
2022/11/22 00:39:33;;;;;;;1.80;1.20;;;8.50;85.30;;;;;;4995002;28;20486;-63
2022/11/22 00:41:59;;;;;;;4.35;1.45;;;8.50;85.30;;;;;;4992077;28;20397;-63
2022/11/22 00:44:25;;;;;;;3.58;1.50;;;8.50;85.30;;;;;;5000621;28;20389;-62
2022/11/22 00:46:50;;;;;;;5.90;1.83;;;8.50;85.20;;;;;;4994360;28;20037;-63
2022/11/22 00:49:16;;;;;;;2.88;1.88;;;8.50;85.20;;;;;;4995447;28;20570;-62
2022/11/22 00:51:42;;;;;;;3.25;1.20;;;8.50;85.30;;;;;;4992830;28;20027;-63
2022/11/22 00:54:07;;;;;;;1.85;1.23;;;8.50;85.30;;;;;;5001843;28;20034;-62
2022/11/22 00:56:34;;;;;;;3.95;1.98;;;8.50;85.30;;;;;;4975569;28;20027;-63
2022/11/22 00:59:00;;;;;;;3.10;1.48;;;8.50;85.30;;;;;;4993115;28;20023;-63
2022/11/22 01:01:25;;;;;;;4.05;2.08;;;8.50;85.30;;;;;;4990433;28;20027;-63
2022/11/22 01:03:51;;;;;;;4.80;1.52;;;8.60;85.20;;;;;;4998104;28;20037;-63
2022/11/22 01:06:17;;;;;;;2.90;1.67;;;8.60;85.20;;;;;;4994483;28;20026;-63
2022/11/22 01:08:42;;;;;;;5.72;1.67;;;8.60;85.20;;;;;;4996894;28;20543;-62
2022/11/22 01:11:09;;;;;;;2.47;1.38;;;8.60;85.20;;;;;;4991517;28;20038;-63
2022/11/22 01:13:34;;;;;;;2.67;1.48;;;8.60;85.20;;;;;;4990944;28;20049;-62
2022/11/22 01:16:05;;;;;;;4.78;1.55;;;8.60;85.20;;;;;;4993009;28;20034;-63
2022/11/22 01:18:31;;;;;;;1.83;1.13;;;8.60;85.20;;;;;;4991946;28;20057;-63
2022/11/22 01:20:57;;;;;;;2.58;1.40;;;8.60;85.10;;;;;;4992524;28;20077;-64
2022/11/22 01:23:22;;;;;;;11.13;1.58;;;8.70;85.10;;;;;;4996816;28;20089;-64
2022/11/22 01:25:48;;;;;;;2.10;1.20;;;8.70;85.00;;;;;;4999318;28;20113;-63
2022/11/22 01:28:14;;;;;;;3.97;1.63;;;8.70;85.00;;;;;;4996094;28;20097;-64
2022/11/22 01:30:41;;;;;;;2.05;1.40;;;8.70;85.00;;;;;;4991466;28;20492;-63
2022/11/22 01:33:07;;;;;;;2.47;1.60;;;8.70;84.90;;;;;;4992125;28;20034;-63
2022/11/22 01:35:32;;;;;;;3.30;1.67;;;8.70;85.00;;;;;;5005205;28;20030;-63
2022/11/22 01:37:58;;;;;;;4.07;1.27;;;8.70;85.00;;;;;;4999314;28;20034;-64
2022/11/22 01:40:24;;;;;;;2.60;1.33;;;8.70;85.00;;;;;;4991439;28;20045;-63
2022/11/22 01:42:52;;;;;;;2.67;1.70;;;8.80;84.90;;;;;;4999609;28;20031;-63
2022/11/22 01:45:30;;;;;;;3.50;1.35;;;8.80;84.90;;;;;;5000444;28;20040;-63
2022/11/22 01:47:55;;;;;;;2.65;1.55;;;8.80;84.80;;;;;;4991309;28;20034;-63
2022/11/22 01:50:21;;;;;;;5.53;1.27;;;8.80;84.80;;;;;;4991386;28;20057;-63
2022/11/22 01:52:47;;;;;;;1.52;1.17;;;8.80;84.80;;;;;;5007226;28;20065;-63
2022/11/22 01:55:13;;;;;;;1.67;1.35;;;8.70;84.90;;;;;;4995244;28;20231;-63
2022/11/22 01:57:42;;;;;;;2.22;1.63;;;8.80;84.90;;;;;;4990104;28;20066;-63
2022/11/22 02:00:10;;;;;;;1.73;1.00;;;8.80;84.90;;;;;;4998541;28;20038;-63
2022/11/22 02:02:36;;;;;;;2.38;1.13;;;8.80;84.80;;;;;;5002342;28;20068;-63
2022/11/22 02:05:09;;;;;;;2.47;1.63;;;8.80;84.80;;;;;;5011186;28;20136;-63
2022/11/22 02:07:46;;;;;;;1.35;1.10;;;8.80;84.80;;;;;;5004624;28;20097;-63
2022/11/22 02:10:13;;;;;;;9.25;2.22;;;8.80;84.80;;;;;;5001908;28;20140;-63
2022/11/22 02:12:39;;;;;;;1.10;1.00;;;8.70;84.70;;;;;;5009532;28;20452;-63
2022/11/22 02:15:06;;;;;;;3.17;1.30;;;8.70;84.80;;;;;;5010727;28;20061;-63
2022/11/22 02:17:33;;;;;;;1.52;1.25;;;8.70;84.90;;;;;;5004150;28;20049;-63
2022/11/22 02:19:58;;;;;;;1.38;1.05;;;8.70;84.90;;;;;;4992615;28;20026;-63
2022/11/22 02:22:52;;;;;;;1.30;1.10;;;8.70;85.10;;;;;;4998332;28;20497;-63
2022/11/22 02:25:25;;;;;;;2.80;1.33;;;8.70;85.00;;;;;;4998620;28;20489;-63
2022/11/22 02:27:51;;;;;;;1.60;1.00;;;8.70;85.00;;;;;;4997012;28;20029;-62
2022/11/22 02:30:17;;;;;;;5.07;2.05;;;8.70;85.00;;;;;;4988999;28;20042;-64
2022/11/22 02:32:43;;;;;;;3.03;1.27;;;8.70;85.10;;;;;;4989484;28;20117;-63
2022/11/22 02:35:24;;;;;;;3.08;1.10;;;8.70;85.20;;;;;;4991274;28;20034;-63
2022/11/22 02:37:54;;;;;;;2.65;1.60;;;8.70;85.10;;;;;;4998721;28;20102;-63
2022/11/22 02:40:21;;;;;;;5.55;2.08;;;8.70;85.10;;;;;;4990181;28;20118;-63
2022/11/22 02:42:59;;;;;;;1.85;1.30;;;8.70;85.00;;;;;;4999055;28;20326;-64
2022/11/22 02:45:24;;;;;;;3.17;1.45;;;8.80;84.90;;;;;;4979295;28;20033;-62
2022/11/22 02:47:50;;;;;;;3.47;1.80;;;8.80;84.90;;;;;;4995898;28;20038;-64
2022/11/22 02:50:16;;;;;;;4.95;1.40;;;8.80;84.90;;;;;;5021900;28;20034;-63
2022/11/22 02:52:41;;;;;;;1.88;1.48;;;8.80;84.90;;;;;;4995213;28;20076;-63
2022/11/22 02:55:07;;;;;;;2.42;1.48;;;8.80;85.00;;;;;;4990336;28;20030;-63
2022/11/22 02:57:33;;;;;;;1.20;1.05;;;8.80;84.90;;;;;;5022488;28;20030;-63
2022/11/22 02:59:59;;;;;;;1.88;1.23;;;8.80;84.90;;;;;;4987105;28;20023;-63
2022/11/22 03:02:24;;;;;;;1.20;0.98;;;8.80;84.90;;;;;;5006263;28;20129;-63
2022/11/22 03:04:50;;;;;;;5.25;1.17;;;8.80;84.80;;;;;;5010200;28;20026;-62
2022/11/22 03:07:16;;;;;;;1.77;1.17;;;8.80;84.80;;;;;;5004670;28;20489;-63
2022/11/22 03:09:42;;;;;;;3.90;1.58;;;8.80;84.80;;;;;;4998495;28;20036;-63
2022/11/22 03:12:07;;;;;;;2.10;1.42;;;8.90;84.80;;;;;;5007988;28;20030;-62
2022/11/22 03:14:33;;;;;;;2.40;1.20;;;8.80;84.80;;;;;;4991288;28;20026;-63
2022/11/22 03:16:59;;;;;;;7.82;1.55;;;8.80;84.80;;;;;;4999782;28;20405;-63
2022/11/22 03:19:24;;;;;;;2.03;1.15;;;8.80;84.90;;;;;;4990546;28;20501;-62
2022/11/22 03:21:50;;;;;;;7.65;1.38;;;8.70;85.00;;;;;;5002716;28;20414;-64
2022/11/22 03:24:18;;;;;;;2.28;1.55;;;8.70;85.10;;;;;;4991547;28;20117;-63
2022/11/22 03:26:50;;;;;;;6.85;1.38;;;8.70;85.30;;;;;;4999750;28;20037;-63
2022/11/22 03:29:17;;;;;;;6.88;1.52;;;8.70;85.30;;;;;;5004498;28;20093;-63
2022/11/22 03:31:43;;;;;;;7.20;1.50;;;8.70;85.30;;;;;;5002600;28;20060;-64
2022/11/22 03:34:10;;;;;;;2.63;1.27;;;8.70;85.30;;;;;;5011991;28;20487;-64
2022/11/22 03:36:36;;;;;;;4.20;1.55;;;8.70;85.30;;;;;;5010244;28;20026;-64
2022/11/22 03:39:02;;;;;;;3.85;1.23;;;8.60;85.30;;;;;;5012783;28;20359;-64
2022/11/22 03:41:27;;;;;;;5.90;1.52;;;8.60;85.40;;;;;;5005342;28;20045;-63
2022/11/22 03:43:53;;;;;;;5.43;1.17;;;8.60;85.50;;;;;;5002113;28;20691;-64
2022/11/22 03:46:19;;;;;;;1.05;0.80;;;8.60;85.50;;;;;;5011051;28;20060;-62
2022/11/22 03:48:45;;;;;;;0.93;0.85;;;8.50;85.50;;;;;;4994164;28;20046;-63
2022/11/22 03:51:11;;;;;;;4.70;0.98;;;8.50;85.50;;;;;;5001043;28;20176;-62
2022/11/22 03:53:37;;;;;;;2.67;1.05;;;8.50;85.40;;;;;;5004782;28;20022;-63
2022/11/22 03:56:03;;;;;;;2.95;1.08;;;8.50;85.40;;;;;;5037443;28;20444;-63
2022/11/22 03:58:29;;;;;;;2.22;1.38;;;8.50;85.30;;;;;;5011301;28;20384;-63
2022/11/22 04:00:56;;;;;;;2.35;1.17;;;8.50;85.30;;;;;;5010790;28;20045;-63
2022/11/22 04:03:21;;;;;;;2.78;0.90;;;8.40;85.50;;;;;;5011063;28;20029;-63
2022/11/22 04:05:47;;;;;;;1.52;1.25;;;8.50;85.60;;;;;;5009062;28;20378;-63
2022/11/22 04:08:13;;;;;;;4.13;1.67;;;8.50;85.50;;;;;;5004396;28;20092;-63
2022/11/22 04:10:39;;;;;;;4.07;1.88;;;8.40;85.40;;;;;;5006775;28;20034;-63
2022/11/22 04:13:04;;;;;;;2.28;0.90;;;8.40;85.50;;;;;;4999808;28;20065;-63
2022/11/22 04:15:30;;;;;;;3.92;1.48;;;8.30;85.50;;;;;;4997554;28;20042;-63
2022/11/22 04:17:56;;;;;;;2.38;1.42;;;8.30;85.40;;;;;;4993498;28;20034;-63
2022/11/22 04:23:17;;;;;;;4.63;1.52;;;8.30;85.50;;;;;;5010432;28;20052;-63
2022/11/22 04:25:51;;;;;;;5.20;1.60;;;8.30;85.50;;;;;;5001568;28;20060;-63
2022/11/22 04:28:20;;;;;;;1.10;0.93;;;8.30;85.40;;;;;;5005455;28;20564;-62
2022/11/22 04:33:30;;;;;;;6.97;1.60;;;8.20;85.30;;;;;;4999670;28;20041;-63
2022/11/22 04:35:56;;;;;;;1.52;0.90;;;8.20;85.40;;;;;;5027288;28;20397;-63
2022/11/22 04:38:22;;;;;;;2.63;1.05;;;8.20;85.30;;;;;;4995317;28;20342;-63
2022/11/22 04:40:48;;;;;;;1.67;1.13;;;8.20;85.30;;;;;;4995623;28;20058;-63
2022/11/22 04:46:11;;;;;;;1.52;0.60;;;8.20;85.10;;;;;;4994898;28;20041;-64
2022/11/22 04:48:37;;;;;;;0.88;0.63;;;8.10;85.20;;;;;;4980198;28;20026;-63
2022/11/22 04:53:48;;;;;;;0.85;0.65;;;8.00;85.20;;;;;;5002845;28;20393;-64
2022/11/22 04:56:14;;;;;;;7.15;0.98;;;8.00;85.30;;;;;;5006262;28;20030;-64
2022/11/22 04:58:39;;;;;;;2.72;1.00;;;8.00;85.30;;;;;;5008548;28;20092;-64
2022/11/22 05:01:05;;;;;;;2.38;1.20;;;7.90;85.20;;;;;;4997254;28;20039;-64
2022/11/22 05:03:31;;;;;;;4.25;1.55;;;7.90;85.20;;;;;;5011779;28;20048;-64
2022/11/22 05:06:01;;;;;;;5.95;1.30;;;7.90;85.20;;;;;;5008584;28;20469;-63
2022/11/22 05:08:27;;;;;;;1.98;0.93;;;7.90;85.20;;;;;;4998830;28;20029;-64
2022/11/22 05:10:55;;;;;;;3.08;1.65;;;7.80;85.30;;;;;;4998368;28;20034;-64
2022/11/22 05:13:27;;;;;;;7.00;1.75;;;7.80;85.30;;;;;;4998953;28;20033;-63
2022/11/22 05:15:53;;;;;;;2.13;1.33;;;7.80;85.20;;;;;;4996441;28;20042;-64
2022/11/22 05:18:20;;;;;;;3.15;1.17;;;7.80;85.20;;;;;;4992700;28;20118;-64
2022/11/22 05:20:46;;;;;;;1.10;0.77;;;7.80;85.20;;;;;;4999442;28;20034;-64
2022/11/22 05:25:57;;;;;;;1.65;0.98;;;7.80;85.10;;;;;;4997869;28;20046;-63
2022/11/22 05:28:22;;;;;;;1.02;0.95;;;7.80;85.10;;;;;;5003055;28;20038;-63
2022/11/22 05:30:48;;;;;;;2.95;1.33;;;7.80;85.10;;;;;;5011152;28;20404;-63
2022/11/22 05:33:14;;;;;;;5.28;2.33;;;7.80;85.00;;;;;;4993340;28;20042;-64
2022/11/22 05:35:39;;;;;;;2.83;1.33;;;7.70;85.00;;;;;;4996254;28;20080;-64
2022/11/22 05:38:05;;;;;;;3.10;1.63;;;7.70;85.00;;;;;;5002166;28;20103;-64
2022/11/22 05:40:31;;;;;;;6.60;1.42;;;7.70;84.90;;;;;;5008761;28;20092;-63
2022/11/22 05:42:58;;;;;;;8.20;1.70;;;7.70;84.90;;;;;;5009305;28;20030;-63
2022/11/22 05:45:24;;;;;;;1.60;1.05;;;7.70;85.50;;;;;;4994564;28;20415;-63
2022/11/22 05:47:49;;;;;;;3.70;1.42;;;7.70;84.80;;;;;;4998282;28;20026;-63
2022/11/22 05:50:16;;;;;;;4.65;1.63;;;7.70;84.80;;;;;;5000777;28;20052;-64
2022/11/22 05:52:42;;;;;;;1.75;0.80;;;7.70;84.80;;;;;;4994335;28;20026;-63
2022/11/22 05:55:08;;;;;;;5.70;1.73;;;7.60;84.80;;;;;;4998138;28;20041;-64
2022/11/22 05:57:34;;;;;;;3.33;1.48;;;7.60;84.80;;;;;;4995483;28;20484;-63
2022/11/22 05:59:59;;;;;;;1.45;0.85;;;7.60;84.90;;;;;;5001840;28;20436;-64
2022/11/22 06:02:25;;;;;;;1.60;1.00;;;7.60;84.80;;;;;;4997165;28;20038;-64
2022/11/22 06:04:51;;;;;;;1.25;1.05;;;7.60;84.70;;;;;;4997284;28;20077;-64
2022/11/22 06:07:16;;;;;;;9.85;1.27;;;7.60;84.70;;;;;;4997545;28;20477;-64
2022/11/22 06:09:42;;;;;;;6.57;1.40;;;7.60;84.60;;;;;;4997688;28;20416;-64
2022/11/22 06:12:08;;;;;;;1.95;1.15;;;7.60;84.60;;;;;;4997020;28;20044;-63
2022/11/22 06:14:34;;;;;;;1.63;1.40;;;7.50;84.60;;;;;;4999674;28;20018;-63
2022/11/22 06:16:59;;;;;;;4.13;1.13;;;7.50;84.70;;;;;;4996729;28;20038;-63
2022/11/22 06:19:25;;;;;;;3.00;1.13;;;7.50;84.60;;;;;;5024028;28;20562;-64
2022/11/22 06:21:51;;;;;;;2.75;1.45;;;7.50;84.60;;;;;;4996137;28;20034;-63
2022/11/22 06:24:17;;;;;;;2.60;1.33;;;7.50;84.60;;;;;;4991327;28;20042;-64
2022/11/22 06:26:43;;;;;;;3.70;1.45;;;7.50;84.50;;;;;;4991303;28;20042;-64
2022/11/22 06:29:08;;;;;;;6.55;0.90;;;7.40;84.40;;;;;;4996348;28;20591;-64
2022/11/22 06:31:34;;;;;;;1.15;0.88;;;7.40;84.40;;;;;;5001995;28;20501;-64
2022/11/22 06:34:00;;;;;;;4.03;0.50;;;7.40;85.00;;;;;;4991320;28;20121;-62
2022/11/22 06:36:31;;;;;;;3.13;1.15;;;7.40;84.40;;;;;;4996036;28;20390;-63
2022/11/22 06:38:57;;;;;;;2.55;0.95;;;7.40;84.50;;;;;;4989129;28;20022;-67
2022/11/22 06:41:25;;;;;;;3.42;1.17;;;7.40;84.50;;;;;;4986814;28;20038;-66
2022/11/22 06:43:52;;;;;;;1.27;0.85;;;7.40;84.50;;;;;;4986192;28;20425;-67
2022/11/22 06:46:20;;;;;;;1.02;0.80;;;7.40;84.40;;;;;;4995102;28;20033;-68
2022/11/22 06:48:46;;;;;;;1.42;0.75;;;7.30;84.30;;;;;;4994642;28;20065;-69
2022/11/22 06:51:15;;;;;;;3.95;1.13;;;7.30;84.40;;;;;;4994537;28;20496;-66
2022/11/22 06:53:41;;;;;;;2.15;0.70;;;7.30;84.30;;;;;;4995842;28;20042;-69
2022/11/22 06:56:10;;;;;;;2.25;1.10;;;7.20;84.30;;;;;;4997836;28;20148;-67
2022/11/22 06:58:36;;;;;;;1.65;0.98;;;7.20;84.30;;;;;;4989229;28;20500;-67
2022/11/22 07:01:12;;;;;;;4.55;1.20;;;7.20;84.20;;;;;;4993730;28;20445;-66
2022/11/22 07:03:39;;;;;;;2.22;0.90;;;7.10;84.20;;;;;;4991195;28;20038;-62
2022/11/22 07:06:07;;;;;;;2.80;1.30;;;7.10;84.30;;;;;;4993802;28;20035;-62
2022/11/22 07:08:33;;;;;;;3.22;1.35;;;7.10;84.30;;;;;;5000474;28;20049;-62
2022/11/22 07:11:03;;;;;;;4.82;0.90;;;7.10;84.30;;;;;;5002443;28;20109;-62
2022/11/22 07:13:29;;;;;;;2.90;1.55;;;7.10;84.20;;;;;;5001772;28;20038;-63
2022/11/22 07:15:59;;;;;;;1.63;0.98;;;7.10;84.20;;;;;;5002651;28;20034;-62
2022/11/22 07:18:26;;;;;;;1.58;1.23;;;7.00;84.20;;;;;;4998580;28;20057;-62
2022/11/22 07:20:52;;;;;;;2.05;0.80;;;7.00;84.20;;;;;;5002866;28;20504;-62
2022/11/22 07:23:18;;;;;;;2.20;0.85;;;7.00;84.20;;;;;;5003806;28;20100;-63
2022/11/22 07:25:45;;;;;;;4.25;0.82;;;7.00;84.20;;;;;;5007670;28;20396;-62
2022/11/22 07:28:12;;;;;;;2.42;1.33;;;7.00;84.20;;;;;;5003748;28;20029;-62
2022/11/22 07:30:39;;;;;;;5.10;1.02;;;7.00;84.20;;;;;;4995281;28;20042;-62
2022/11/22 07:33:05;;;;;;;2.15;1.10;;;7.00;84.40;;;;;;4998278;28;20053;-66
2022/11/22 07:35:31;;;;;;;1.77;1.10;;;6.90;84.30;;;;;;4997300;28;20030;-67
2022/11/22 07:37:57;;;;;;;0.70;0.60;;;7.00;84.40;;;;;;5002610;28;20104;-67
2022/11/22 07:40:23;;;;;;;2.53;0.82;;;7.00;84.40;;;;;;5000360;28;20065;-67
2022/11/22 07:42:48;;;;;;;4.40;0.90;;;7.10;84.40;;;;;;5000212;28;20033;-68
2022/11/22 07:45:14;;;;;;;2.78;1.20;;;7.10;84.20;;;;;;4993713;28;20050;-62
2022/11/22 07:47:40;;;;;;;1.15;0.95;;;7.20;84.20;;;;;;4998978;28;20477;-62
2022/11/22 07:50:06;;;;;;;4.72;1.25;;;7.20;84.10;;;;;;5000351;28;20501;-62
2022/11/22 07:52:32;;;;;;;6.97;1.38;;;7.30;84.00;;;;;;4999227;28;20533;-63
2022/11/22 07:54:57;;;;;;;0.77;0.47;;;7.30;84.00;;;;;;4999285;28;20109;-62
2022/11/22 07:57:26;;;;;;;1.95;1.20;;;7.30;84.30;;;;;;5002212;28;20030;-62
2022/11/22 07:59:52;;;;;;;6.03;1.73;;;7.30;84.00;;;;;;4995480;28;20061;-61
2022/11/22 08:02:17;;;;;;;4.63;1.60;;;7.30;84.00;;;;;;4998785;28;20034;-62
2022/11/22 08:04:43;;;;;;;3.35;0.98;;;7.30;83.90;;;;;;4999374;28;20014;-61
2022/11/22 08:07:09;;;;;;;2.03;1.30;;;7.30;83.90;;;;;;5005527;28;20531;-61
2022/11/22 08:09:35;;;;;;;3.35;1.48;;;7.30;83.90;;;;;;4993218;28;20034;-61
2022/11/22 08:12:01;;;;;;;2.10;1.20;;;7.30;83.90;;;;;;4999597;28;20029;-61
2022/11/22 08:14:27;;;;;;;3.47;1.10;;;7.30;83.90;;;;;;4996116;28;20371;-62
2022/11/22 08:16:53;;;;;;;6.72;1.50;;;7.30;83.90;;;;;;5000894;28;20036;-61
2022/11/22 08:19:19;;;;;;;3.63;1.52;;;7.40;84.10;;;;;;4994035;28;20507;-62
2022/11/22 08:21:46;;;;;;;6.57;1.83;;;7.40;83.90;;;;;;5004692;28;20053;-62
2022/11/22 08:24:13;;;;;;;6.00;1.17;;;7.40;83.80;;;;;;4996250;28;20495;-62
2022/11/22 08:26:39;;;;;;;12.77;1.30;;;7.40;83.90;;;;;;5001505;28;20022;-62
2022/11/22 08:29:06;;;;;;;1.50;1.27;;;7.40;84.00;;;;;;4997728;28;20278;-62
2022/11/22 08:31:32;;;;;;;5.15;0.88;;;7.50;84.00;;;;;;5010979;28;20030;-63
2022/11/22 08:33:58;;;;;;;3.15;1.13;;;7.50;83.90;;;;;;5012443;28;20084;-62
2022/11/22 08:36:24;;;;;;;2.40;1.33;;;7.50;83.80;;;;;;5010145;28;20034;-63
2022/11/22 08:38:49;;;;;;;3.50;1.10;;;7.50;83.90;;;;;;5004563;28;20061;-62
2022/11/22 08:41:15;;;;;;;3.72;1.80;;;7.50;83.90;;;;;;5008784;28;20044;-62
2022/11/22 08:43:41;;;;;;;3.65;1.13;;;7.50;83.90;;;;;;4993309;28;20027;-62
2022/11/22 08:46:06;;;;;;;3.63;1.38;;;7.60;83.80;;;;;;4995731;28;20083;-62
2022/11/22 08:48:34;;;;;;;3.83;1.23;;;7.60;83.80;;;;;;4992602;28;20042;-63
2022/11/22 08:51:06;;;;;;;6.43;1.17;;;7.60;83.80;;;;;;5000791;28;20477;-62
2022/11/22 08:53:33;;;;;;;4.45;1.33;;;7.60;83.70;;;;;;4997592;28;20113;-62
2022/11/22 08:56:01;;;;;;;2.03;1.10;;;7.60;83.70;;;;;;4997840;28;20026;-62
2022/11/22 08:58:30;;;;;;;1.92;1.10;;;7.70;83.70;;;;;;4996012;28;20022;-61
2022/11/22 09:00:56;;;;;;;2.78;1.45;;;7.60;83.50;;;;;;4997702;28;20038;-61
2022/11/22 09:03:22;;;;;;;2.45;1.15;;;7.70;83.50;;;;;;4993647;28;20109;-61
2022/11/22 09:05:48;;;;;;;2.50;1.15;;;7.70;83.50;;;;;;5024355;28;20073;-61
2022/11/22 09:08:13;;;;;;;2.05;1.30;;;7.70;83.40;;;;;;4993327;28;20022;-61
2022/11/22 09:10:39;;;;;;;1.58;0.73;;;7.80;83.40;;;;;;5007431;28;20038;-62
2022/11/22 09:13:05;;;;;;;1.92;1.48;;;7.90;83.30;;;;;;5003712;28;20109;-62
2022/11/22 09:15:30;;;;;;;4.15;1.25;;;7.90;83.10;;;;;;5007420;28;20029;-63
2022/11/22 09:18:01;;;;;;;3.35;1.80;;;7.90;83.00;;;;;;5023317;28;20136;-63
2022/11/22 09:20:27;;;;;;;2.38;1.17;;;7.90;83.00;;;;;;4996268;28;20393;-63
2022/11/22 09:22:52;;;;;;;3.33;1.50;;;7.90;83.00;;;;;;4997218;28;20370;-63
2022/11/22 09:25:18;;;;;;;2.47;0.93;;;7.90;82.90;;;;;;4996349;28;20049;-63
2022/11/22 09:27:44;;;;;;;3.13;0.90;;;7.90;83.00;;;;;;4984657;28;20436;-64
2022/11/22 09:30:10;;;;;;;1.52;1.00;;;7.90;83.00;;;;;;5004819;28;20362;-63
2022/11/22 09:32:35;;;;;;;4.20;1.38;;;8.00;82.90;;;;;;4997549;28;20030;-61
2022/11/22 09:35:01;;;;;;;1.55;1.00;;;8.00;82.80;;;;;;4998409;28;20485;-62
2022/11/22 09:37:27;;;;;;;1.13;0.95;;;8.00;82.60;;;;;;4997401;28;20040;-62
2022/11/22 09:39:53;;;;;;;4.00;1.10;;;8.00;82.50;;;;;;4998628;28;20484;-61
2022/11/22 09:42:40;;;;;;;3.47;1.73;;;8.00;82.60;;;;;;5027198;28;20084;-61
2022/11/22 09:45:59;;;;;;;3.95;1.10;;;8.00;82.50;;;;;;4995312;28;20065;-61
2022/11/22 09:49:11;;;;;;;2.60;1.17;;;8.10;82.60;;;;;;4955371;28;20039;-63
2022/11/22 09:51:49;;;;;;;6.10;1.02;;;8.10;82.50;;;;;;4949997;28;20038;-63
2022/11/22 09:54:24;;;;;;;0.90;0.90;;;8.10;83.00;;;;;;4994684;28;20156;-62
2022/11/22 09:56:54;;;;;;;1.50;0.80;;;8.10;82.30;;;;;;4994328;28;20018;-62
2022/11/22 09:59:28;;;;;;;2.38;0.98;;;8.10;82.20;;;;;;5001353;28;20484;-62
2022/11/22 10:02:07;;;;;;;4.25;1.02;;;8.10;82.20;;;;;;4996698;28;20473;-62
2022/11/22 10:04:39;;;;;;;2.25;1.35;;;8.20;82.20;;;;;;4998348;28;20026;-62
2022/11/22 10:07:16;;;;;;;1.17;0.85;;;8.20;82.00;;;;;;4998179;28;20066;-63
2022/11/22 10:09:55;;;;;;;3.67;1.10;;;8.30;81.80;;;;;;4995658;28;20477;-63
2022/11/22 10:12:40;;;;;;;1.65;0.93;;;8.40;81.60;;;;;;5000608;28;20461;-63
2022/11/22 10:15:38;;;;;;;4.15;1.30;;;8.50;81.40;;;;;;4993908;28;20038;-62
2022/11/22 10:18:24;;;;;;;3.05;1.02;;;8.50;81.30;;;;;;4994433;28;20030;-62
2022/11/22 10:20:50;;;;;;;0.77;0.77;;;8.50;81.40;;;;;;4992552;28;20032;-61
2022/11/22 10:23:23;;;;;;;1.85;1.13;;;8.50;81.40;;;;;;5000787;28;20041;-62
2022/11/22 10:25:59;;;;;;;5.25;1.55;;;8.60;81.30;;;;;;4995078;28;20024;-62
2022/11/22 10:28:34;;;;;;;5.53;1.13;;;8.60;81.00;;;;;;4999004;28;20066;-62
2022/11/22 10:31:32;;;;;;;1.52;0.73;;;8.60;81.10;;;;;;4991039;28;20026;-61
2022/11/22 10:34:05;;;;;;;1.30;0.70;;;8.70;81.10;;;;;;5005187;28;20514;-61
2022/11/22 10:36:47;;;;;;;3.20;0.82;;;8.60;81.20;;;;;;5001099;28;20056;-61
2022/11/22 10:39:56;;;;;;;2.97;1.20;;;8.70;81.20;;;;;;4996806;28;20038;-61
2022/11/22 10:42:22;;;;;;;1.35;1.17;;;8.70;81.10;;;;;;5006452;28;20033;-61
2022/11/22 10:45:14;;;;;;;2.05;1.20;;;8.70;81.10;;;;;;5007812;28;20564;-61
2022/11/22 10:48:20;;;;;;;4.47;1.38;;;8.80;80.90;;;;;;4994714;28;20061;-61
2022/11/22 10:51:12;;;;;;;2.95;0.88;;;8.80;80.90;;;;;;4996635;28;20099;-61
2022/11/22 10:53:44;;;;;;;3.42;1.27;;;8.90;81.00;;;;;;4984545;28;20042;-61
2022/11/22 10:56:36;;;;;;;3.05;1.25;;;8.90;81.00;;;;;;5006468;28;20153;-62
2022/11/22 10:59:23;;;;;;;0.80;0.40;;;8.90;80.50;;;;;;4986851;28;20046;-61
2022/11/22 11:02:00;;;;;;;2.47;0.70;;;8.90;80.60;;;;;;4999577;28;20420;-62
2022/11/22 11:04:35;;;;;;;3.92;0.90;;;8.90;80.60;;;;;;4998060;28;20034;-63
2022/11/22 11:07:04;;;;;;;0.63;0.60;;;9.00;80.40;;;;;;4989191;28;20046;-61
2022/11/22 11:09:42;;;;;;;1.13;0.68;;;9.00;80.40;;;;;;4997068;28;20103;-62
2022/11/22 11:12:52;;;;;;;4.13;0.82;;;9.00;80.20;;;;;;5002853;28;20533;-63
2022/11/22 11:15:20;;;;;;;4.47;1.15;;;9.10;80.10;;;;;;5009471;28;20034;-63
2022/11/22 11:17:53;;;;;;;1.10;0.63;;;9.00;79.60;;;;;;4982867;28;20049;-63
2022/11/22 11:20:34;;;;;;;1.15;0.65;;;8.90;79.70;;;;;;4997598;28;20034;-62
2022/11/22 11:22:59;;;;;;;2.58;0.82;;;8.90;79.60;;;;;;4993637;28;20025;-61
2022/11/22 11:25:29;;;;;;;6.50;0.77;;;8.90;79.60;;;;;;5006656;28;20042;-62
2022/11/22 11:28:02;;;;;;;3.72;1.00;;;8.90;79.70;;;;;;4986822;28;20469;-62
2022/11/22 11:30:40;;;;;;;3.20;1.05;;;8.90;79.70;;;;;;5003411;28;20032;-63
2022/11/22 11:33:39;;;;;;;1.48;0.63;;;9.00;79.80;;;;;;4988801;28;20038;-63
2022/11/22 11:36:14;;;;;;;0.93;0.45;;;9.00;79.60;;;;;;4982018;28;20039;-62
2022/11/22 11:38:40;;;;;;;1.50;0.77;;;9.00;79.70;;;;;;4998197;28;20036;-63
2022/11/22 11:41:16;;;;;;;1.38;0.60;;;9.00;79.40;;;;;;5006556;28;20021;-61
2022/11/22 11:43:43;;;;;;;1.85;0.93;;;9.00;79.30;;;;;;4993352;28;20116;-61
2022/11/22 11:46:16;;;;;;;0.82;0.43;;;9.00;79.30;;;;;;4993120;28;20041;-61
2022/11/22 11:48:42;;;;;;;4.18;0.45;;;9.10;79.10;;;;;;4985451;28;20169;-61
2022/11/22 11:51:38;;;;;;;0.80;0.50;;;9.10;79.10;;;;;;4986858;28;20088;-61
2022/11/22 11:54:10;;;;;;;2.17;0.68;;;9.10;79.00;;;;;;4986986;28;20035;-63
2022/11/22 11:56:49;;;;;;;1.30;0.47;;;9.10;78.80;;;;;;5003147;28;20022;-62
2022/11/22 11:59:16;;;;;;;1.45;0.73;;;9.10;78.80;;;;;;5006048;28;20069;-63
2022/11/22 12:01:52;;;;;;;0.35;0.35;;;9.10;78.90;;;;;;5000182;28;20029;-63
2022/11/22 12:04:21;;;;;;;2.20;1.00;;;9.20;79.00;;;;;;5003026;28;20041;-63
2022/11/22 12:07:15;;;;;;;1.67;0.70;;;9.30;78.90;;;;;;4996343;28;20030;-63
2022/11/22 12:09:45;;;;;;;0.35;0.35;;;9.40;79.00;;;;;;4997671;28;20113;-63
2022/11/22 12:12:37;;;;;;;0.77;0.60;;;9.40;78.70;;;;;;5001543;28;20366;-62
2022/11/22 12:15:24;;;;;;;1.60;0.68;;;9.40;78.30;;;;;;5002784;28;20034;-63
2022/11/22 12:17:59;;;;;;;0.68;0.60;;;9.50;78.30;;;;;;4999880;28;20053;-63
2022/11/22 12:20:52;;;;;;;1.23;0.75;;;9.50;78.40;;;;;;5001278;28;20469;-63
2022/11/22 12:23:31;;;;;;;0.63;0.63;;;9.50;78.40;;;;;;4988781;28;20058;-63
2022/11/22 12:25:58;;;;;;;4.07;0.82;;;9.60;78.50;;;;;;4998200;28;20041;-63
2022/11/22 12:28:26;;;;;;;0.98;0.65;;;9.60;78.50;;;;;;5009108;28;20037;-63
2022/11/22 12:31:18;;;;;;;2.10;0.52;;;9.60;78.50;;;;;;4995276;28;20034;-62
2022/11/22 12:33:57;;;;;;;0.50;0.50;;;9.60;78.10;;;;;;4994641;28;20122;-62
2022/11/22 12:36:51;;;;;;;0.57;0.43;;;9.50;78.10;;;;;;4988894;28;20471;-63
2022/11/22 12:39:27;;;;;;;0.70;0.45;;;9.60;78.20;;;;;;4988787;28;20478;-63
2022/11/22 12:41:59;;;;;;;0.93;0.50;;;9.60;78.20;;;;;;4991268;28;20034;-63
2022/11/22 12:44:25;;;;;;;0.73;0.38;;;9.50;78.30;;;;;;4993623;28;20073;-63
2022/11/22 12:47:01;;;;;;;3.03;0.73;;;9.50;78.30;;;;;;4990656;28;20026;-63
2022/11/22 12:49:31;;;;;;;0.52;0.40;;;9.50;78.20;;;;;;4991988;28;20034;-63
2022/11/22 12:52:15;;;;;;;1.33;0.50;;;9.50;78.20;;;;;;4992055;28;20030;-63
2022/11/22 12:55:12;;;;;;;0.40;0.30;;;9.50;78.10;;;;;;4991692;28;20081;-63
2022/11/22 12:57:51;;;;;;;0.55;0.38;;;9.50;78.10;;;;;;4991932;28;20460;-63
2022/11/22 13:00:23;;;;;;;0.25;0.25;;;9.50;78.30;;;;;;4992446;28;20441;-63
2022/11/22 13:02:48;;;;;;;1.08;0.60;;;9.40;78.30;;;;;;4989433;28;20042;-63
2022/11/22 13:05:24;;;;;;;1.38;0.30;;;9.40;78.30;;;;;;4991820;28;20038;-63
2022/11/22 13:07:55;;;;;;;0.65;0.20;;;9.40;78.10;;;;;;4990661;28;20101;-63
2022/11/22 13:10:27;;;;;;;0.22;0.20;;;9.40;78.20;;;;;;4992326;28;20343;-63
2022/11/22 13:12:55;;;;;;;1.65;0.82;;;9.40;78.10;;;;;;4991859;28;20388;-63
2022/11/22 13:15:28;;;;;;;0.35;0.28;;;9.40;78.00;;;;;;4988091;28;20481;-63
2022/11/22 13:17:54;;;;;;;0.20;0.20;;;9.40;77.90;;;;;;4993966;28;20133;-63
2022/11/22 13:20:27;;;;;;;0.60;0.47;;;9.40;77.60;;;;;;4999955;28;20124;-63
2022/11/22 13:23:31;;;;;;;0.25;0.25;;;9.40;77.30;;;;;;5010671;28;20061;-63
2022/11/22 13:26:31;;;;;;;0.22;0.22;;;9.40;77.30;;;;;;4991581;28;20080;-63